createdAt,value
2018-09-23T00:01:59.530Z,20.50
2018-09-23T00:04:32.163Z,20.40
2018-09-23T00:07:04.543Z,20.40
2018-09-23T00:09:37.009Z,20.40
2018-09-23T00:12:09.589Z,20.40
2018-09-23T00:14:42.118Z,20.40
2018-09-23T00:17:14.608Z,20.30
2018-09-23T00:19:50.367Z,20.30
2018-09-23T00:22:23.217Z,20.30
2018-09-23T00:24:56.079Z,20.30
2018-09-23T00:27:28.823Z,20.30
2018-09-23T00:30:01.614Z,20.30
2018-09-23T00:32:34.294Z,20.30
2018-09-23T00:35:06.977Z,20.30
2018-09-23T00:37:39.423Z,20.30
2018-09-23T00:40:24.544Z,20.30
2018-09-23T00:43:06.354Z,20.30
2018-09-23T00:45:53.056Z,20.30
2018-09-23T00:48:36.036Z,20.30
2018-09-23T00:51:27.669Z,20.20
2018-09-23T00:54:07.377Z,20.20
2018-09-23T00:56:48.573Z,20.30
2018-09-23T00:59:23.210Z,20.30
2018-09-23T01:02:02.563Z,20.30
2018-09-23T01:04:43.120Z,20.30
2018-09-23T01:10:01.011Z,20.30
2018-09-23T01:12:33.705Z,20.30
2018-09-23T01:15:06.271Z,20.30
2018-09-23T01:17:38.907Z,20.30
2018-09-23T01:20:11.495Z,20.30
2018-09-23T01:22:46.791Z,20.40
2018-09-23T01:25:19.232Z,20.40
2018-09-23T01:27:51.671Z,20.40
2018-09-23T01:30:25.899Z,20.40
2018-09-23T01:32:58.403Z,20.40
2018-09-23T01:35:31.209Z,20.40
2018-09-23T01:38:03.717Z,20.40
2018-09-23T01:40:36.245Z,20.50
2018-09-23T01:43:09.035Z,20.50
2018-09-23T01:45:41.565Z,20.40
2018-09-23T01:48:14.452Z,20.40
2018-09-23T01:50:46.898Z,20.40
2018-09-23T01:53:19.645Z,20.50
2018-09-23T01:55:52.661Z,20.40
2018-09-23T01:58:25.211Z,20.30
2018-09-23T02:00:58.219Z,20.30
2018-09-23T02:03:30.706Z,20.30
2018-09-23T02:06:03.592Z,20.20
2018-09-23T02:08:36.308Z,20.20
2018-09-23T02:11:08.738Z,20.10
2018-09-23T02:13:41.333Z,20.10
2018-09-23T02:16:13.864Z,20.00
2018-09-23T02:18:46.269Z,20.00
2018-09-23T02:21:19.247Z,19.90
2018-09-23T02:23:51.999Z,20.00
2018-09-23T02:26:24.467Z,19.90
2018-09-23T02:28:56.857Z,19.90
2018-09-23T02:31:29.303Z,19.90
2018-09-23T02:34:01.736Z,19.90
2018-09-23T02:36:34.258Z,19.90
2018-09-23T02:39:06.987Z,20.00
2018-09-23T02:41:39.487Z,20.10
2018-09-23T02:44:12.419Z,20.10
2018-09-23T02:46:45.014Z,20.10
2018-09-23T02:49:18.490Z,20.10
2018-09-23T02:51:51.087Z,20.10
2018-09-23T02:54:24.212Z,20.00
2018-09-23T02:56:56.953Z,20.00
2018-09-23T02:59:33.012Z,20.00
2018-09-23T03:02:06.191Z,19.90
2018-09-23T03:04:39.085Z,19.90
2018-09-23T03:07:11.840Z,19.90
2018-09-23T03:09:44.330Z,19.80
2018-09-23T03:12:19.112Z,19.80
2018-09-23T03:14:51.607Z,19.90
2018-09-23T03:17:24.315Z,19.90
2018-09-23T03:19:56.858Z,19.90
2018-09-23T03:22:29.352Z,19.90
2018-09-23T03:25:01.793Z,19.90
2018-09-23T03:27:34.812Z,19.90
2018-09-23T03:30:07.311Z,19.90
2018-09-23T03:32:39.760Z,20.00
2018-09-23T03:35:12.380Z,20.00
2018-09-23T03:37:45.043Z,20.00
2018-09-23T03:40:18.591Z,20.00
2018-09-23T03:42:51.337Z,19.90
2018-09-23T03:45:24.041Z,20.00
2018-09-23T03:47:56.614Z,20.00
2018-09-23T03:50:29.277Z,20.00
2018-09-23T03:53:01.805Z,20.00
2018-09-23T03:55:36.079Z,20.00
2018-09-23T03:58:10.369Z,19.90
2018-09-23T04:00:43.065Z,19.90
2018-09-23T04:03:15.513Z,19.90
2018-09-23T04:05:48.002Z,19.90
2018-09-23T04:08:20.706Z,19.90
2018-09-23T04:10:53.736Z,19.90
2018-09-23T04:13:27.089Z,19.80
2018-09-23T04:15:59.966Z,19.90
2018-09-23T04:18:32.536Z,19.90
2018-09-23T04:21:05.222Z,19.90
2018-09-23T04:23:37.759Z,19.90
2018-09-23T04:26:11.231Z,19.90
2018-09-23T04:28:44.727Z,19.90
2018-09-23T04:31:17.255Z,19.80
2018-09-23T04:33:50.359Z,19.80
2018-09-23T04:36:22.915Z,19.80
2018-09-23T04:38:55.608Z,19.70
2018-09-23T04:41:28.421Z,19.70
2018-09-23T04:44:01.155Z,19.70
2018-09-23T04:46:33.644Z,19.70
2018-09-23T04:49:06.113Z,19.60
2018-09-23T04:51:38.831Z,19.60
2018-09-23T04:54:12.754Z,19.60
2018-09-23T04:56:45.537Z,19.60
2018-09-23T04:59:21.648Z,19.60
2018-09-23T05:01:57.501Z,19.60
2018-09-23T05:04:31.771Z,19.60
2018-09-23T05:07:04.354Z,19.60
2018-09-23T05:09:36.963Z,19.50
2018-09-23T05:12:09.403Z,19.50
2018-09-23T05:14:42.190Z,19.40
2018-09-23T05:17:14.749Z,19.40
2018-09-23T05:19:47.757Z,19.40
2018-09-23T05:22:20.247Z,19.40
2018-09-23T05:24:52.768Z,19.30
2018-09-23T05:27:25.963Z,19.30
2018-09-23T05:29:58.521Z,19.30
2018-09-23T05:32:31.896Z,19.30
2018-09-23T05:35:04.461Z,19.30
2018-09-23T05:37:39.059Z,19.30
2018-09-23T05:40:12.168Z,19.40
2018-09-23T05:42:45.179Z,19.40
2018-09-23T05:45:18.645Z,19.40
2018-09-23T05:47:51.131Z,19.30
2018-09-23T05:50:24.257Z,19.30
2018-09-23T05:52:56.997Z,19.30
2018-09-23T05:55:30.017Z,19.30
2018-09-23T05:58:02.730Z,19.30
2018-09-23T06:00:44.664Z,19.30
2018-09-23T06:03:17.349Z,19.30
2018-09-23T06:05:57.131Z,19.30
2018-09-23T06:08:30.598Z,19.30
2018-09-23T06:11:03.248Z,19.40
2018-09-23T06:13:35.923Z,19.40
2018-09-23T06:16:08.188Z,19.40
2018-09-23T06:18:40.716Z,19.40
2018-09-23T06:21:13.250Z,19.40
2018-09-23T06:23:45.681Z,19.40
2018-09-23T06:26:18.169Z,19.30
2018-09-23T06:28:50.627Z,19.20
2018-09-23T06:31:23.086Z,19.20
2018-09-23T06:33:55.484Z,19.20
2018-09-23T06:36:27.966Z,19.10
2018-09-23T06:39:00.563Z,19.10
2018-09-23T06:41:33.112Z,19.10
2018-09-23T06:44:05.718Z,19.10
2018-09-23T06:46:38.295Z,19.10
2018-09-23T06:49:10.768Z,19.10
2018-09-23T06:51:43.549Z,19.00
2018-09-23T06:54:16.118Z,19.10
2018-09-23T06:56:48.902Z,19.00
2018-09-23T06:59:21.770Z,19.10
2018-09-23T07:01:54.190Z,19.00
2018-09-23T07:04:27.104Z,19.10
2018-09-23T07:06:59.780Z,19.00
2018-09-23T07:09:32.264Z,19.10
2018-09-23T07:12:04.964Z,19.10
2018-09-23T07:14:37.741Z,19.10
2018-09-23T07:17:10.415Z,19.10
2018-09-23T07:19:43.140Z,19.00
2018-09-23T07:22:15.771Z,19.10
2018-09-23T07:24:48.262Z,19.00
2018-09-23T07:27:21.175Z,19.00
2018-09-23T07:29:55.044Z,19.10
2018-09-23T07:32:27.702Z,19.10
2018-09-23T07:35:00.222Z,19.10
2018-09-23T07:37:33.158Z,19.10
2018-09-23T07:40:05.820Z,19.10
2018-09-23T07:42:38.684Z,19.10
2018-09-23T07:45:11.401Z,19.10
2018-09-23T07:47:43.977Z,19.10
2018-09-23T07:50:16.648Z,19.10
2018-09-23T07:52:49.437Z,19.00
2018-09-23T07:55:21.912Z,19.00
2018-09-23T07:57:54.768Z,19.00
2018-09-23T08:00:28.041Z,19.00
2018-09-23T08:03:00.523Z,18.90
2018-09-23T08:05:38.910Z,18.90
2018-09-23T08:08:11.429Z,18.90
2018-09-23T08:10:44.038Z,18.90
2018-09-23T08:13:16.768Z,18.90
2018-09-23T08:15:49.412Z,18.90
2018-09-23T08:18:23.222Z,18.90
2018-09-23T08:20:55.886Z,18.90
2018-09-23T08:23:28.443Z,18.90
2018-09-23T08:26:00.892Z,19.00
2018-09-23T08:28:33.281Z,19.10
2018-09-23T08:31:05.736Z,19.10
2018-09-23T08:33:37.986Z,19.10
2018-09-23T08:36:10.599Z,19.10
2018-09-23T08:38:43.007Z,19.10
2018-09-23T08:41:15.482Z,19.10
2018-09-23T08:43:48.098Z,19.00
2018-09-23T08:46:20.478Z,19.00
2018-09-23T08:48:53.173Z,19.00
2018-09-23T08:51:25.893Z,19.00
2018-09-23T08:53:58.588Z,19.00
2018-09-23T08:56:30.955Z,19.00
2018-09-23T08:59:03.438Z,19.00
2018-09-23T09:01:37.901Z,19.00
2018-09-23T09:04:10.575Z,19.00
2018-09-23T09:06:42.973Z,19.00
2018-09-23T09:09:15.427Z,19.00
2018-09-23T09:11:47.895Z,19.00
2018-09-23T09:14:20.540Z,19.00
2018-09-23T09:16:53.057Z,19.00
2018-09-23T09:19:25.769Z,18.90
2018-09-23T09:21:58.444Z,18.90
2018-09-23T09:24:30.943Z,18.90
2018-09-23T09:27:03.373Z,18.90
2018-09-23T09:29:35.821Z,18.90
2018-09-23T09:32:08.477Z,18.90
2018-09-23T09:34:41.031Z,18.90
2018-09-23T09:37:13.423Z,18.90
2018-09-23T09:39:46.012Z,18.90
2018-09-23T09:42:18.448Z,18.90
2018-09-23T09:44:51.199Z,18.80
2018-09-23T09:47:23.826Z,18.80
2018-09-23T09:49:56.196Z,18.80
2018-09-23T09:52:29.200Z,18.80
2018-09-23T09:55:01.692Z,18.80
2018-09-23T09:57:34.511Z,18.80
2018-09-23T10:00:07.626Z,18.80
2018-09-23T10:02:40.075Z,18.80
2018-09-23T10:05:12.563Z,18.80
2018-09-23T10:07:45.220Z,18.80
2018-09-23T10:10:24.367Z,18.80
2018-09-23T10:13:02.650Z,18.70
2018-09-23T10:15:35.121Z,18.70
2018-09-23T10:18:08.715Z,18.70
2018-09-23T10:20:41.326Z,18.70
2018-09-23T10:23:15.231Z,18.70
2018-09-23T10:25:49.427Z,18.70
2018-09-23T10:28:22.005Z,18.60
2018-09-23T10:30:54.523Z,18.60
2018-09-23T10:33:26.915Z,18.60
2018-09-23T10:35:59.587Z,18.70
2018-09-23T10:38:32.128Z,18.70
2018-09-23T10:41:04.437Z,18.70
2018-09-23T10:43:36.849Z,18.70
2018-09-23T10:46:09.617Z,18.70
2018-09-23T10:48:42.246Z,18.70
2018-09-23T10:51:14.801Z,18.70
2018-09-23T10:53:47.274Z,18.70
2018-09-23T10:56:20.353Z,18.70
2018-09-23T10:58:53.247Z,18.70
2018-09-23T11:01:25.741Z,18.70
2018-09-23T11:03:58.383Z,18.60
2018-09-23T11:06:31.112Z,18.70
2018-09-23T11:09:03.525Z,18.60
2018-09-23T11:11:36.162Z,18.60
2018-09-23T11:14:08.717Z,18.60
2018-09-23T11:16:41.289Z,18.60
2018-09-23T11:19:15.520Z,18.50
2018-09-23T11:21:48.103Z,18.50
2018-09-23T11:24:20.796Z,18.50
2018-09-23T11:26:53.327Z,18.50
2018-09-23T11:29:26.238Z,18.50
2018-09-23T11:31:58.846Z,18.50
2018-09-23T11:34:31.266Z,18.50
2018-09-23T11:37:03.766Z,18.40
2018-09-23T11:39:36.678Z,18.40
2018-09-23T11:42:09.104Z,18.40
2018-09-23T11:44:41.805Z,18.40
2018-09-23T11:47:15.833Z,18.40
2018-09-23T11:49:48.432Z,18.40
2018-09-23T11:52:22.473Z,18.40
2018-09-23T11:54:55.222Z,18.40
2018-09-23T11:57:27.663Z,18.40
2018-09-23T12:00:00.156Z,18.40
2018-09-23T12:02:41.835Z,18.40
2018-09-23T12:05:23.865Z,18.40
2018-09-23T12:07:58.938Z,18.40
2018-09-23T12:10:31.886Z,18.40
2018-09-23T12:13:04.589Z,18.30
2018-09-23T12:15:45.038Z,18.40
2018-09-23T12:18:24.781Z,18.40
2018-09-23T12:21:01.727Z,18.40
2018-09-23T12:23:39.993Z,18.40
2018-09-23T12:26:12.480Z,18.40
2018-09-23T12:28:45.310Z,18.50
2018-09-23T12:31:18.267Z,18.50
2018-09-23T12:33:50.643Z,18.50
2018-09-23T12:36:23.346Z,18.60
2018-09-23T12:38:56.380Z,18.60
2018-09-23T12:41:29.018Z,18.60
2018-09-23T12:44:01.426Z,18.60
2018-09-23T12:46:34.909Z,18.70
2018-09-23T12:49:07.328Z,18.70
2018-09-23T12:51:39.905Z,18.80
2018-09-23T12:54:12.454Z,18.90
2018-09-23T12:56:44.972Z,19.00
2018-09-23T12:59:19.060Z,19.00
2018-09-23T13:01:55.545Z,19.00
2018-09-23T13:04:32.383Z,18.90
2018-09-23T13:07:04.958Z,19.00
2018-09-23T13:09:39.663Z,19.00
2018-09-23T13:12:16.105Z,19.10
2018-09-23T13:14:49.684Z,19.20
2018-09-23T13:17:26.349Z,19.20
2018-09-23T13:20:02.946Z,19.30
2018-09-23T13:22:38.395Z,19.40
2018-09-23T13:25:14.520Z,19.50
2018-09-23T13:27:50.895Z,19.60
2018-09-23T13:30:26.960Z,19.60
2018-09-23T13:33:02.681Z,19.70
2018-09-23T13:35:39.656Z,19.60
2018-09-23T13:38:15.221Z,19.60
2018-09-23T13:40:49.634Z,19.60
2018-09-23T13:43:25.904Z,19.60
2018-09-23T13:46:02.343Z,19.60
2018-09-23T13:48:39.854Z,19.70
2018-09-23T13:51:15.748Z,19.80
2018-09-23T13:53:52.178Z,19.90
2018-09-23T13:56:29.409Z,20.00
2018-09-23T13:59:05.655Z,20.10
2018-09-23T14:01:42.436Z,20.20
2018-09-23T14:04:18.814Z,20.30
2018-09-23T14:06:54.961Z,20.30
2018-09-23T14:09:30.398Z,20.40
2018-09-23T14:12:06.978Z,20.50
2018-09-23T14:14:42.630Z,20.50
2018-09-23T14:17:17.589Z,20.50
2018-09-23T14:19:53.815Z,20.50
2018-09-23T14:22:29.647Z,20.60
2018-09-23T14:25:05.947Z,20.70
2018-09-23T14:27:41.343Z,20.80
2018-09-23T14:30:17.860Z,21.00
2018-09-23T14:32:51.613Z,21.30
2018-09-23T14:35:28.335Z,21.40
2018-09-23T14:38:04.849Z,21.50
2018-09-23T14:40:41.159Z,21.70
2018-09-23T14:43:17.738Z,21.90
2018-09-23T14:45:52.483Z,21.90
2018-09-23T14:48:28.929Z,22.00
2018-09-23T14:51:03.799Z,22.00
2018-09-23T14:53:39.504Z,21.90
2018-09-23T14:56:14.779Z,21.80
2018-09-23T14:58:51.629Z,21.90
2018-09-23T15:01:28.031Z,21.80
2018-09-23T15:04:04.125Z,21.70
2018-09-23T15:06:38.721Z,21.60
2018-09-23T15:09:15.578Z,21.60
2018-09-23T15:11:51.864Z,21.60
2018-09-23T15:14:27.744Z,21.70
2018-09-23T15:17:03.723Z,21.70
2018-09-23T15:19:44.407Z,21.70
2018-09-23T15:22:20.290Z,21.80
2018-09-23T15:24:56.337Z,21.80
2018-09-23T15:27:32.614Z,21.90
2018-09-23T15:30:11.171Z,21.90
2018-09-23T15:32:46.782Z,21.80
2018-09-23T15:35:23.671Z,21.80
2018-09-23T15:37:58.661Z,22.00
2018-09-23T15:40:34.330Z,22.30
2018-09-23T15:43:10.917Z,22.50
2018-09-23T15:45:47.402Z,22.60
2018-09-23T15:48:23.820Z,22.70
2018-09-23T15:51:00.072Z,22.70
2018-09-23T15:56:28.686Z,22.60
2018-09-23T15:59:05.012Z,22.60
2018-09-23T16:01:40.618Z,22.60
2018-09-23T16:04:16.689Z,22.60
2018-09-23T16:06:53.401Z,22.50
2018-09-23T16:09:27.974Z,22.40
2018-09-23T16:12:03.698Z,22.40
2018-09-23T16:14:38.311Z,22.50
2018-09-23T16:17:15.051Z,22.40
2018-09-23T16:19:51.095Z,22.50
2018-09-23T16:22:27.252Z,22.60
2018-09-23T16:25:03.669Z,22.50
2018-09-23T16:27:39.658Z,22.80
2018-09-23T16:30:11.656Z,22.90
2018-09-23T16:32:44.396Z,22.80
2018-09-23T16:35:18.266Z,22.70
2018-09-23T16:37:51.273Z,22.70
2018-09-23T16:40:24.299Z,22.80
2018-09-23T16:42:57.270Z,22.80
2018-09-23T16:45:34.622Z,22.60
2018-09-23T16:48:07.995Z,22.70
2018-09-23T16:50:41.201Z,22.80
2018-09-23T16:53:14.402Z,22.90
2018-09-23T16:55:46.992Z,23.00
2018-09-23T16:58:20.567Z,23.20
2018-09-23T17:00:53.806Z,23.40
2018-09-23T17:03:26.512Z,23.60
2018-09-23T17:06:00.131Z,23.60
2018-09-23T17:08:33.090Z,23.60
2018-09-23T17:11:06.275Z,23.70
2018-09-23T17:13:39.269Z,23.80
2018-09-23T17:16:11.921Z,23.70
2018-09-23T17:18:44.658Z,23.80
2018-09-23T17:21:17.345Z,23.90
2018-09-23T17:23:49.929Z,23.90
2018-09-23T17:26:23.039Z,23.80
2018-09-23T17:28:55.980Z,23.80
2018-09-23T17:31:28.753Z,23.70
2018-09-23T17:34:04.178Z,23.90
2018-09-23T17:36:37.173Z,24.10
2018-09-23T17:39:13.048Z,24.20
2018-09-23T17:41:53.095Z,23.90
2018-09-23T17:44:29.861Z,23.70
2018-09-23T17:47:04.852Z,23.60
2018-09-23T17:49:37.859Z,23.80
2018-09-23T17:52:10.627Z,24.00
2018-09-23T17:54:48.241Z,24.10
2018-09-23T17:57:21.327Z,24.00
2018-09-23T17:59:54.401Z,24.00
2018-09-23T18:02:30.037Z,24.00
2018-09-23T18:05:04.560Z,24.00
2018-09-23T18:07:37.615Z,24.10
2018-09-23T18:10:16.257Z,24.30
2018-09-23T18:12:52.941Z,24.30
2018-09-23T18:15:35.875Z,24.40
2018-09-23T18:18:11.300Z,24.20
2018-09-23T18:20:46.242Z,24.10
2018-09-23T18:23:20.673Z,24.10
2018-09-23T18:25:58.541Z,24.30
2018-09-23T18:28:36.674Z,24.50
2018-09-23T18:31:09.711Z,24.60
2018-09-23T18:33:43.623Z,24.70
2018-09-23T18:36:23.660Z,24.80
2018-09-23T18:38:58.630Z,25.00
2018-09-23T18:41:42.600Z,25.20
2018-09-23T18:44:31.703Z,25.20
2018-09-23T18:47:04.677Z,25.20
2018-09-23T18:49:37.846Z,25.20
2018-09-23T18:52:12.080Z,25.30
2018-09-23T18:54:50.187Z,25.70
2018-09-23T18:57:23.688Z,25.60
2018-09-23T18:59:58.118Z,25.60
2018-09-23T19:02:31.494Z,25.70
2018-09-23T19:05:04.131Z,25.70
2018-09-23T19:07:38.576Z,25.60
2018-09-23T19:10:10.873Z,25.30
2018-09-23T19:12:46.768Z,25.30
2018-09-23T19:15:19.647Z,25.40
2018-09-23T19:17:53.453Z,25.40
2018-09-23T19:20:26.219Z,25.40
2018-09-23T19:23:03.111Z,25.40
2018-09-23T19:25:36.076Z,25.40
2018-09-23T19:28:08.960Z,25.50
2018-09-23T19:30:41.477Z,25.30
2018-09-23T19:33:14.097Z,25.10
2018-09-23T19:35:46.681Z,25.00
2018-09-23T19:38:19.250Z,25.00
2018-09-23T19:40:51.785Z,25.20
2018-09-23T19:43:24.399Z,25.40
2018-09-23T19:45:56.915Z,25.40
2018-09-23T19:48:32.038Z,25.40
2018-09-23T19:51:04.779Z,25.50
2018-09-23T19:53:37.487Z,25.50
2018-09-23T19:56:09.971Z,25.30
2018-09-23T19:58:45.052Z,24.80
2018-09-23T20:01:17.977Z,24.70
2018-09-23T20:03:50.920Z,24.90
2018-09-23T20:06:24.414Z,25.30
2018-09-23T20:08:57.127Z,25.40
2018-09-23T20:11:30.683Z,25.10
2018-09-23T20:14:03.433Z,24.90
2018-09-23T20:16:35.995Z,24.70
2018-09-23T20:19:10.001Z,24.70
2018-09-23T20:21:42.638Z,24.60
2018-09-23T20:24:16.427Z,24.60
2018-09-23T20:28:12.363Z,24.50
2018-09-23T20:30:44.946Z,24.50
2018-09-23T20:33:17.563Z,24.40
2018-09-23T20:35:50.714Z,24.30
2018-09-23T20:38:23.339Z,24.10
2018-09-23T20:40:55.983Z,24.10
2018-09-23T20:43:28.595Z,24.10
2018-09-23T20:46:01.151Z,24.10
2018-09-23T20:48:33.974Z,23.90
2018-09-23T20:51:06.670Z,23.80
2018-09-23T20:53:39.489Z,23.70
2018-09-23T20:56:12.277Z,23.60
2018-09-23T20:58:44.937Z,23.70
2018-09-23T21:01:17.781Z,23.70
2018-09-23T21:03:50.507Z,23.80
2018-09-23T21:06:23.165Z,23.90
2018-09-23T21:08:55.887Z,23.90
2018-09-23T21:11:28.551Z,23.90
2018-09-23T21:14:01.317Z,24.00
2018-09-23T21:16:33.837Z,24.00
2018-09-23T21:19:07.359Z,24.00
2018-09-23T21:21:40.490Z,24.00
2018-09-23T21:24:13.799Z,24.20
2018-09-23T21:26:46.370Z,24.40
2018-09-23T21:29:19.092Z,24.40
2018-09-23T21:31:51.850Z,24.30
2018-09-23T21:34:24.564Z,24.20
2018-09-23T21:36:58.054Z,24.20
2018-09-23T21:39:30.781Z,24.20
2018-09-23T21:42:03.515Z,24.30
2018-09-23T21:44:36.165Z,24.10
2018-09-23T21:47:09.186Z,24.00
2018-09-23T21:49:44.428Z,23.90
2018-09-23T21:52:17.331Z,23.80
2018-09-23T21:54:49.956Z,23.70
2018-09-23T21:57:23.219Z,23.70
2018-09-23T21:59:56.603Z,23.70
2018-09-23T22:02:29.783Z,23.70
2018-09-23T22:05:02.434Z,23.70
2018-09-23T22:07:35.404Z,23.80
2018-09-23T22:10:10.380Z,23.70
2018-09-23T22:12:42.969Z,23.50
2018-09-23T22:15:22.392Z,23.40
2018-09-23T22:17:55.666Z,23.30
2018-09-23T22:20:28.611Z,23.10
2018-09-23T22:23:01.457Z,22.80
2018-09-23T22:25:34.023Z,22.60
2018-09-23T22:28:07.853Z,22.50
2018-09-23T22:30:40.806Z,22.50
2018-09-23T22:33:13.550Z,22.30
2018-09-23T22:35:46.549Z,22.00
2018-09-23T22:38:19.174Z,21.90
2018-09-23T22:40:53.914Z,21.90
2018-09-23T22:43:27.359Z,21.90
2018-09-23T22:46:00.374Z,21.90
2018-09-23T22:48:40.520Z,21.80
2018-09-23T22:51:13.505Z,21.80
2018-09-23T22:53:51.525Z,21.80
2018-09-23T22:56:24.452Z,21.80
2018-09-23T22:58:58.730Z,21.80
2018-09-23T23:01:34.807Z,21.80
2018-09-23T23:04:07.702Z,22.00
2018-09-23T23:06:41.788Z,22.00
2018-09-23T23:09:14.828Z,22.00
2018-09-23T23:11:49.465Z,21.90
2018-09-23T23:14:24.192Z,22.00
2018-09-23T23:16:57.405Z,21.90
2018-09-23T23:19:30.376Z,22.00
2018-09-23T23:22:04.189Z,21.90
2018-09-23T23:24:43.237Z,21.90
2018-09-23T23:27:20.653Z,21.80
2018-09-23T23:29:53.559Z,21.80
2018-09-23T23:32:26.238Z,21.70
2018-09-23T23:34:59.107Z,21.60
2018-09-23T23:37:31.798Z,21.50
2018-09-23T23:40:04.942Z,21.50
2018-09-23T23:42:37.608Z,21.50
2018-09-23T23:45:10.113Z,21.50
2018-09-23T23:47:43.715Z,21.50
2018-09-23T23:50:16.342Z,21.50
2018-09-23T23:52:49.259Z,21.50
2018-09-23T23:55:28.252Z,21.40
2018-09-23T23:58:13.165Z,21.40
